createdAt,value
2022-12-06T00:02:12.004Z,7.66
2022-12-06T00:04:38.656Z,7.67
2022-12-06T00:07:05.483Z,7.67
2022-12-06T00:09:32.896Z,7.69
2022-12-06T00:11:59.804Z,7.75
2022-12-06T00:14:27.084Z,7.72
2022-12-06T00:16:54.064Z,7.70
2022-12-06T00:19:22.731Z,7.67
2022-12-06T00:21:49.517Z,7.69
2022-12-06T00:24:19.406Z,7.72
2022-12-06T00:26:47.757Z,7.78
2022-12-06T00:29:20.552Z,7.76
2022-12-06T00:31:47.970Z,7.79
2022-12-06T00:34:14.704Z,7.76
2022-12-06T00:36:42.415Z,7.69
2022-12-06T00:39:13.026Z,7.70
2022-12-06T00:41:40.024Z,7.69
2022-12-06T00:44:06.725Z,7.68
2022-12-06T00:46:35.008Z,7.68
2022-12-06T00:49:03.403Z,7.64
2022-12-06T00:51:32.152Z,7.69
2022-12-06T00:53:59.194Z,7.66
2022-12-06T00:56:26.526Z,7.71
2022-12-06T00:58:53.210Z,7.63
2022-12-06T01:01:22.450Z,7.63
2022-12-06T01:03:52.204Z,7.57
2022-12-06T01:06:21.492Z,7.53
2022-12-06T01:08:48.378Z,7.56
2022-12-06T01:11:16.635Z,7.56
2022-12-06T01:13:44.189Z,7.52
2022-12-06T01:16:14.208Z,7.61
2022-12-06T01:18:42.399Z,7.59
2022-12-06T01:21:11.850Z,7.63
2022-12-06T01:23:38.580Z,7.58
2022-12-06T01:26:07.080Z,7.69
2022-12-06T01:28:34.656Z,7.64
2022-12-06T01:31:07.409Z,7.63
2022-12-06T01:33:34.206Z,7.58
2022-12-06T01:36:00.876Z,7.51
2022-12-06T01:38:27.518Z,7.52
2022-12-06T01:40:54.180Z,7.54
2022-12-06T01:43:36.125Z,7.59
2022-12-06T01:46:16.801Z,7.62
2022-12-06T01:48:44.084Z,7.65
2022-12-06T01:51:14.564Z,7.66
2022-12-06T01:53:44.184Z,7.58
2022-12-06T01:56:11.575Z,7.59
2022-12-06T01:58:40.595Z,7.60
2022-12-06T02:01:09.841Z,7.59
2022-12-06T02:03:37.026Z,7.63
2022-12-06T02:06:06.151Z,7.66
2022-12-06T02:08:33.711Z,7.64
2022-12-06T02:11:03.161Z,7.58
2022-12-06T02:13:32.120Z,7.63
2022-12-06T02:16:21.878Z,7.65
2022-12-06T02:18:54.388Z,7.63
2022-12-06T02:21:20.952Z,7.60
2022-12-06T02:24:06.351Z,7.63
2022-12-06T02:26:43.241Z,7.65
2022-12-06T02:29:09.768Z,7.59
2022-12-06T02:32:03.982Z,7.59
2022-12-06T02:35:08.669Z,7.63
2022-12-06T02:37:46.613Z,7.63
2022-12-06T02:40:21.626Z,7.63
2022-12-06T02:42:56.582Z,7.55
2022-12-06T02:45:28.969Z,7.52
2022-12-06T02:48:00.081Z,7.49
2022-12-06T02:50:37.384Z,7.53
2022-12-06T02:53:08.942Z,7.55
2022-12-06T02:55:36.263Z,7.51
2022-12-06T02:58:03.227Z,7.51
2022-12-06T03:00:34.874Z,7.56
2022-12-06T03:03:09.399Z,7.56
2022-12-06T03:05:42.421Z,7.53
2022-12-06T03:08:23.159Z,7.52
2022-12-06T03:10:57.745Z,7.51
2022-12-06T03:13:34.308Z,7.58
2022-12-06T03:16:05.350Z,7.55
2022-12-06T03:18:42.563Z,7.62
2022-12-06T03:21:14.019Z,7.57
2022-12-06T03:23:44.652Z,7.57
2022-12-06T03:26:16.760Z,7.48
2022-12-06T03:28:46.931Z,7.46
2022-12-06T03:31:15.521Z,7.47
2022-12-06T03:33:55.277Z,7.48
2022-12-06T03:36:23.475Z,7.48
2022-12-06T03:38:54.946Z,7.47
2022-12-06T03:41:27.065Z,7.48
2022-12-06T03:43:54.000Z,7.51
2022-12-06T03:46:37.186Z,7.51
2022-12-06T03:49:18.085Z,7.51
2022-12-06T03:51:45.433Z,7.44
2022-12-06T03:54:13.004Z,7.56
2022-12-06T03:56:39.880Z,7.56
2022-12-06T03:59:08.131Z,7.47
2022-12-06T04:01:35.152Z,7.45
2022-12-06T04:04:02.003Z,7.44
2022-12-06T04:06:28.741Z,7.42
2022-12-06T04:09:15.432Z,7.54
2022-12-06T04:11:42.033Z,7.62
2022-12-06T04:14:08.597Z,7.57
2022-12-06T04:16:53.542Z,7.59
2022-12-06T04:19:20.228Z,7.53
2022-12-06T04:22:05.686Z,7.53
2022-12-06T04:24:32.462Z,7.49
2022-12-06T04:27:19.014Z,7.56
2022-12-06T04:30:04.373Z,7.66
2022-12-06T04:32:49.802Z,7.60
2022-12-06T04:35:35.122Z,7.60
2022-12-06T04:38:20.382Z,7.66
2022-12-06T04:40:47.416Z,7.59
2022-12-06T04:43:49.579Z,7.57
2022-12-06T04:46:16.207Z,7.54
2022-12-06T04:48:42.825Z,7.54
2022-12-06T04:51:13.012Z,7.56
2022-12-06T04:53:39.804Z,7.59
2022-12-06T04:56:06.631Z,7.59
2022-12-06T04:58:33.231Z,7.58
2022-12-06T05:01:00.052Z,7.53
2022-12-06T05:03:26.753Z,7.57
2022-12-06T05:05:53.537Z,7.60
2022-12-06T05:08:20.249Z,7.69
2022-12-06T05:10:48.342Z,7.54
2022-12-06T05:13:15.993Z,7.59
2022-12-06T05:15:56.436Z,7.59
2022-12-06T05:18:24.252Z,7.60
2022-12-06T05:20:51.713Z,7.53
2022-12-06T05:23:18.320Z,7.56
2022-12-06T05:25:44.911Z,7.57
2022-12-06T05:28:11.524Z,7.58
2022-12-06T05:30:38.179Z,7.60
2022-12-06T05:33:04.781Z,7.60
2022-12-06T05:35:31.393Z,7.53
2022-12-06T05:37:58.033Z,7.64
2022-12-06T05:40:24.621Z,7.71
2022-12-06T05:42:51.274Z,7.73
2022-12-06T05:45:18.105Z,7.71
2022-12-06T05:47:44.688Z,7.79
2022-12-06T05:50:11.572Z,7.67
2022-12-06T05:52:38.131Z,7.68
2022-12-06T05:55:05.077Z,7.74
2022-12-06T05:57:31.757Z,7.78
2022-12-06T05:59:58.692Z,7.75
2022-12-06T06:02:25.764Z,7.71
2022-12-06T06:04:53.417Z,7.72
2022-12-06T06:07:20.005Z,7.75
2022-12-06T06:09:46.591Z,7.79
2022-12-06T06:12:13.977Z,7.78
2022-12-06T06:14:40.679Z,7.70
2022-12-06T06:17:07.410Z,7.76
2022-12-06T06:19:34.046Z,7.83
2022-12-06T06:22:00.679Z,7.88
2022-12-06T06:24:27.369Z,7.86
2022-12-06T06:26:54.169Z,7.86
2022-12-06T06:29:20.773Z,7.87
2022-12-06T06:31:47.463Z,7.96
2022-12-06T06:34:14.136Z,8.01
2022-12-06T06:36:45.552Z,8.03
2022-12-06T06:39:13.112Z,7.99
2022-12-06T06:41:39.808Z,7.85
2022-12-06T06:44:06.408Z,7.87
2022-12-06T06:46:33.200Z,7.89
2022-12-06T06:48:59.784Z,7.90
2022-12-06T06:51:26.382Z,7.90
2022-12-06T06:53:52.923Z,7.83
2022-12-06T06:56:20.329Z,7.81
2022-12-06T06:58:47.157Z,7.85
2022-12-06T07:01:19.255Z,7.93
2022-12-06T07:03:46.044Z,7.89
2022-12-06T07:06:13.462Z,7.74
2022-12-06T07:08:41.691Z,7.81
2022-12-06T07:11:10.105Z,7.78
2022-12-06T07:13:40.634Z,7.78
2022-12-06T07:16:11.787Z,7.69
2022-12-06T07:18:38.430Z,7.65
2022-12-06T07:21:07.429Z,7.62
2022-12-06T07:23:35.606Z,7.66
2022-12-06T07:26:12.182Z,7.71
2022-12-06T07:28:40.809Z,7.70
2022-12-06T07:31:10.992Z,7.68
2022-12-06T07:33:38.768Z,7.70
2022-12-06T07:36:14.210Z,7.72
2022-12-06T07:38:43.160Z,7.80
2022-12-06T07:41:34.120Z,7.81
2022-12-06T07:44:20.464Z,7.82
2022-12-06T07:46:47.977Z,7.74
2022-12-06T07:49:18.617Z,7.86
2022-12-06T07:51:46.002Z,7.79
2022-12-06T07:54:12.852Z,7.76
2022-12-06T07:56:40.162Z,7.83
2022-12-06T07:59:06.813Z,7.92
2022-12-06T08:01:33.830Z,7.84
2022-12-06T08:04:02.445Z,7.80
2022-12-06T08:06:30.869Z,7.79
2022-12-06T08:08:57.477Z,7.86
2022-12-06T08:11:24.510Z,7.82
2022-12-06T08:13:51.253Z,7.88
2022-12-06T08:16:18.257Z,7.91
2022-12-06T08:18:45.339Z,8.03
2022-12-06T08:21:12.373Z,8.04
2022-12-06T08:23:39.084Z,8.04
2022-12-06T08:26:08.671Z,8.08
2022-12-06T08:28:37.011Z,8.08
2022-12-06T08:31:08.570Z,8.11
2022-12-06T08:33:36.490Z,8.10
2022-12-06T08:36:09.046Z,8.05
2022-12-06T08:38:39.771Z,8.13
2022-12-06T08:41:27.912Z,8.17
2022-12-06T08:43:55.531Z,8.08
2022-12-06T08:46:23.217Z,8.04
2022-12-06T08:48:49.921Z,8.08
2022-12-06T08:51:16.575Z,8.21
2022-12-06T08:53:43.459Z,8.22
2022-12-06T08:56:10.297Z,8.19
2022-12-06T08:58:37.141Z,8.21
2022-12-06T09:01:15.117Z,8.29
2022-12-06T09:03:41.944Z,8.33
2022-12-06T09:06:09.652Z,8.22
2022-12-06T09:08:36.846Z,8.24
2022-12-06T09:11:05.180Z,8.22
2022-12-06T09:13:32.025Z,8.31
2022-12-06T09:15:58.760Z,8.44
2022-12-06T09:18:25.505Z,8.61
2022-12-06T09:20:52.126Z,8.69
2022-12-06T09:23:18.820Z,8.73
2022-12-06T09:25:45.478Z,8.80
2022-12-06T09:28:12.204Z,8.80
2022-12-06T09:30:38.937Z,8.89
2022-12-06T09:33:05.926Z,9.06
2022-12-06T09:35:34.390Z,9.11
2022-12-06T09:38:03.842Z,9.12
2022-12-06T09:40:42.984Z,9.17
2022-12-06T09:43:09.837Z,9.11
2022-12-06T09:45:56.974Z,9.24
2022-12-06T09:48:49.033Z,9.24
2022-12-06T09:51:21.327Z,9.32
2022-12-06T09:54:15.555Z,9.49
2022-12-06T09:57:03.383Z,9.49
2022-12-06T09:59:37.427Z,9.53
2022-12-06T10:02:28.942Z,9.71
2022-12-06T10:05:01.431Z,9.93
2022-12-06T10:08:08.755Z,9.94
2022-12-06T10:10:53.724Z,9.88
2022-12-06T10:13:37.542Z,9.71
2022-12-06T10:16:16.150Z,9.58
2022-12-06T10:18:52.003Z,9.20
2022-12-06T10:21:27.419Z,9.15
2022-12-06T10:24:07.084Z,9.25
2022-12-06T10:26:50.603Z,9.24
2022-12-06T10:29:29.585Z,9.24
2022-12-06T10:32:04.826Z,9.27
2022-12-06T10:34:49.674Z,9.19
2022-12-06T10:37:56.090Z,9.00
2022-12-06T10:40:30.022Z,8.99
2022-12-06T10:43:21.544Z,9.01
2022-12-06T10:46:13.175Z,8.97
2022-12-06T10:48:52.022Z,8.97
2022-12-06T10:51:25.187Z,8.99
2022-12-06T10:53:58.346Z,8.89
2022-12-06T10:56:32.035Z,8.86
2022-12-06T10:59:04.504Z,8.79
2022-12-06T11:01:41.772Z,8.75
2022-12-06T11:04:17.174Z,8.76
2022-12-06T11:06:54.452Z,8.85
2022-12-06T11:09:40.307Z,8.86
2022-12-06T11:12:25.214Z,8.93
2022-12-06T11:15:06.699Z,8.91
2022-12-06T11:17:39.579Z,8.94
2022-12-06T11:20:21.771Z,8.86
2022-12-06T11:23:10.256Z,8.76
2022-12-06T11:25:46.112Z,8.78
2022-12-06T11:28:32.332Z,8.90
2022-12-06T11:30:59.494Z,8.95
2022-12-06T11:33:33.407Z,8.99
2022-12-06T11:36:05.758Z,8.97
2022-12-06T11:38:34.433Z,8.98
2022-12-06T11:41:03.046Z,9.00
2022-12-06T11:43:35.369Z,9.04
2022-12-06T11:46:03.912Z,9.02
2022-12-06T11:48:33.492Z,9.02
2022-12-06T11:51:00.500Z,9.01
2022-12-06T11:53:30.819Z,9.10
2022-12-06T11:56:01.153Z,9.19
2022-12-06T11:58:35.371Z,9.16
2022-12-06T12:01:05.636Z,9.09
2022-12-06T12:03:36.267Z,9.07
2022-12-06T12:06:16.657Z,9.08
2022-12-06T12:09:01.961Z,9.11
2022-12-06T12:11:31.903Z,9.10
2022-12-06T12:14:02.217Z,9.21
2022-12-06T12:16:46.577Z,9.19
2022-12-06T12:19:34.176Z,9.25
2022-12-06T12:22:16.255Z,9.28
2022-12-06T12:27:46.253Z,9.18
2022-12-06T12:30:16.545Z,9.19
2022-12-06T12:32:44.673Z,9.14
2022-12-06T12:35:20.718Z,9.17
2022-12-06T12:37:51.461Z,9.11
2022-12-06T12:40:42.823Z,9.14
2022-12-06T12:43:12.407Z,9.07
2022-12-06T12:45:41.040Z,9.14
2022-12-06T12:48:25.882Z,9.13
2022-12-06T12:50:57.740Z,9.09
2022-12-06T12:53:41.674Z,9.02
2022-12-06T12:56:17.392Z,8.99
2022-12-06T12:58:46.450Z,8.93
2022-12-06T13:01:25.412Z,8.93
2022-12-06T13:03:57.714Z,8.91
2022-12-06T13:06:39.971Z,8.92
2022-12-06T13:09:10.636Z,8.89
2022-12-06T13:11:47.853Z,8.88
2022-12-06T13:14:19.799Z,8.91
2022-12-06T13:16:51.251Z,8.76
2022-12-06T13:19:20.281Z,8.89
2022-12-06T13:21:48.913Z,8.95
2022-12-06T13:24:24.377Z,8.95
2022-12-06T13:27:00.899Z,8.80
2022-12-06T13:29:42.304Z,8.89
2022-12-06T13:32:23.384Z,8.98
2022-12-06T13:35:02.310Z,8.96
2022-12-06T13:37:34.176Z,9.04
2022-12-06T13:40:02.247Z,9.05
2022-12-06T13:42:37.780Z,9.12
2022-12-06T13:45:36.059Z,9.21
2022-12-06T13:48:02.897Z,9.10
2022-12-06T13:50:32.235Z,9.14
2022-12-06T13:53:02.382Z,9.10
2022-12-06T13:55:29.031Z,9.08
2022-12-06T13:57:55.670Z,9.14
2022-12-06T14:00:31.142Z,9.14
2022-12-06T14:03:00.465Z,9.12
2022-12-06T14:06:12.132Z,9.12
2022-12-06T14:08:46.424Z,9.23
2022-12-06T14:11:13.596Z,9.29
2022-12-06T14:13:42.028Z,9.26
2022-12-06T14:16:14.333Z,9.27
2022-12-06T14:18:42.218Z,9.29
2022-12-06T14:21:23.783Z,9.28
2022-12-06T14:23:50.505Z,9.28
2022-12-06T14:26:23.735Z,9.34
2022-12-06T14:28:53.301Z,9.37
2022-12-06T14:31:29.685Z,9.39
2022-12-06T14:33:57.255Z,9.30
2022-12-06T14:36:29.934Z,9.20
2022-12-06T14:39:09.114Z,9.11
2022-12-06T14:41:56.647Z,9.09
2022-12-06T14:44:31.581Z,9.10
2022-12-06T14:46:59.386Z,9.07
2022-12-06T14:49:46.421Z,9.05
2022-12-06T14:52:22.264Z,9.08
2022-12-06T14:54:50.178Z,9.18
2022-12-06T14:57:25.260Z,9.13
2022-12-06T15:00:20.801Z,9.08
2022-12-06T15:03:07.923Z,9.08
2022-12-06T15:05:34.689Z,9.02
2022-12-06T15:08:32.130Z,8.96
2022-12-06T15:11:56.693Z,8.83
2022-12-06T15:14:46.954Z,8.73
2022-12-06T15:17:13.511Z,8.73
2022-12-06T15:19:51.512Z,8.74
2022-12-06T15:22:29.108Z,8.65
2022-12-06T15:24:58.152Z,8.67
2022-12-06T15:27:28.591Z,8.62
2022-12-06T15:29:55.432Z,8.63
2022-12-06T15:32:24.884Z,8.64
2022-12-06T15:34:51.571Z,8.62
2022-12-06T15:40:06.521Z,8.62
2022-12-06T15:42:33.172Z,8.68
2022-12-06T15:44:59.962Z,8.60
2022-12-06T15:47:26.694Z,8.64
2022-12-06T15:49:54.345Z,8.64
2022-12-06T15:52:25.091Z,8.63
2022-12-06T15:54:51.868Z,8.65
2022-12-06T15:57:18.479Z,8.69
2022-12-06T15:59:45.074Z,8.71
2022-12-06T16:02:17.231Z,8.70
2022-12-06T16:04:45.094Z,8.70
2022-12-06T16:07:13.509Z,8.64
2022-12-06T16:09:40.147Z,8.69
2022-12-06T16:12:07.168Z,8.70
2022-12-06T16:14:33.784Z,8.58
2022-12-06T16:17:00.403Z,8.63
2022-12-06T16:19:46.980Z,8.65
2022-12-06T16:22:13.616Z,8.67
2022-12-06T16:24:40.545Z,8.71
2022-12-06T16:27:07.185Z,8.68
2022-12-06T16:29:33.877Z,8.65
2022-12-06T16:32:00.498Z,8.66
2022-12-06T16:34:28.613Z,8.69
2022-12-06T16:37:02.702Z,8.69
2022-12-06T16:39:31.307Z,8.70
2022-12-06T16:41:57.957Z,8.63
2022-12-06T16:44:24.903Z,8.65
2022-12-06T16:46:52.138Z,8.68
2022-12-06T16:52:07.762Z,8.65
2022-12-06T16:54:34.417Z,8.66
2022-12-06T16:57:01.123Z,8.65
2022-12-06T16:59:27.739Z,8.72
2022-12-06T17:01:55.276Z,8.71
2022-12-06T17:04:22.170Z,8.66
2022-12-06T17:06:49.209Z,8.64
2022-12-06T17:09:16.368Z,8.64
2022-12-06T17:12:01.906Z,8.60
2022-12-06T17:14:28.703Z,8.64
2022-12-06T17:16:55.686Z,8.63
2022-12-06T17:19:24.109Z,8.59
2022-12-06T17:21:52.497Z,8.51
2022-12-06T17:24:20.759Z,8.67
2022-12-06T17:26:48.121Z,8.68
2022-12-06T17:29:14.815Z,8.56
2022-12-06T17:31:42.830Z,8.61
2022-12-06T17:34:13.436Z,8.59
2022-12-06T17:36:40.914Z,8.50
2022-12-06T17:39:14.178Z,8.48
2022-12-06T17:41:59.422Z,8.42
2022-12-06T17:44:26.694Z,8.49
2022-12-06T17:46:53.530Z,8.47
2022-12-06T17:49:23.521Z,8.45
2022-12-06T17:51:50.972Z,8.48
2022-12-06T17:54:19.407Z,8.48
2022-12-06T17:56:47.778Z,8.51
2022-12-06T17:59:20.638Z,8.55
2022-12-06T18:04:36.087Z,8.63
2022-12-06T18:07:02.720Z,8.54
2022-12-06T18:09:29.325Z,8.56
2022-12-06T18:11:56.411Z,8.55
2022-12-06T18:14:23.244Z,8.57
2022-12-06T18:16:49.882Z,8.58
2022-12-06T18:19:19.401Z,8.57
2022-12-06T18:21:47.114Z,8.53
2022-12-06T18:24:25.560Z,8.52
2022-12-06T18:26:54.493Z,8.60
2022-12-06T18:29:23.063Z,8.61
2022-12-06T18:31:50.644Z,8.58
2022-12-06T18:34:17.825Z,8.64
2022-12-06T18:36:44.496Z,8.66
2022-12-06T18:39:24.241Z,8.58
2022-12-06T18:41:52.536Z,8.63
2022-12-06T18:44:19.424Z,8.67
2022-12-06T18:46:46.003Z,8.62
2022-12-06T18:49:12.634Z,8.69
2022-12-06T18:51:39.565Z,8.65
2022-12-06T18:54:08.132Z,8.59
2022-12-06T18:56:35.988Z,8.57
2022-12-06T18:59:06.048Z,8.65
2022-12-06T19:01:35.280Z,8.58
2022-12-06T19:04:04.577Z,8.59
2022-12-06T19:06:33.986Z,8.59
2022-12-06T19:09:06.690Z,8.52
2022-12-06T19:11:36.533Z,8.57
2022-12-06T19:14:03.692Z,8.53
2022-12-06T19:16:35.100Z,8.56
2022-12-06T19:19:02.731Z,8.54
2022-12-06T19:21:33.022Z,8.54
2022-12-06T19:23:59.659Z,8.57
2022-12-06T19:26:27.905Z,8.50
2022-12-06T19:28:54.915Z,8.58
2022-12-06T19:31:24.652Z,8.60
2022-12-06T19:33:52.560Z,8.60
2022-12-06T19:36:25.643Z,8.60
2022-12-06T19:38:56.867Z,8.60
2022-12-06T19:41:23.599Z,8.57
2022-12-06T19:44:09.669Z,8.56
2022-12-06T19:46:36.924Z,8.50
2022-12-06T19:49:07.367Z,8.58
2022-12-06T19:51:38.921Z,8.49
2022-12-06T19:54:07.163Z,8.44
2022-12-06T19:56:34.575Z,8.42
2022-12-06T19:59:05.534Z,8.42
2022-12-06T20:01:32.253Z,8.44
2022-12-06T20:03:58.828Z,8.45
2022-12-06T20:06:27.471Z,8.44
2022-12-06T20:08:55.726Z,8.54
2022-12-06T20:11:42.189Z,8.51
2022-12-06T20:14:11.406Z,8.44
2022-12-06T20:16:38.247Z,8.45
2022-12-06T20:19:08.057Z,8.46
2022-12-06T20:21:35.214Z,8.51
2022-12-06T20:24:02.309Z,8.56
2022-12-06T20:26:31.846Z,8.53
2022-12-06T20:28:58.797Z,8.52
2022-12-06T20:31:27.953Z,8.48
2022-12-06T20:34:07.878Z,8.46
2022-12-06T20:36:36.958Z,8.47
2022-12-06T20:39:03.717Z,8.50
2022-12-06T20:41:31.754Z,8.53
2022-12-06T20:43:59.354Z,8.46
2022-12-06T20:46:28.953Z,8.51
2022-12-06T20:48:57.391Z,8.39
2022-12-06T20:51:26.126Z,8.46
2022-12-06T20:53:57.412Z,8.48
2022-12-06T20:56:26.978Z,8.48
2022-12-06T20:58:56.553Z,8.49
2022-12-06T21:01:26.153Z,8.48
2022-12-06T21:03:54.929Z,8.48
2022-12-06T21:06:23.418Z,8.50
2022-12-06T21:08:51.249Z,8.48
2022-12-06T21:11:23.415Z,8.48
2022-12-06T21:13:54.981Z,8.50
2022-12-06T21:16:24.426Z,8.50
2022-12-06T21:18:56.141Z,8.52
2022-12-06T21:21:25.621Z,8.53
2022-12-06T21:23:52.321Z,8.53
2022-12-06T21:26:18.951Z,8.54
2022-12-06T21:28:45.624Z,8.55
2022-12-06T21:31:12.472Z,8.54
2022-12-06T21:33:39.096Z,8.55
2022-12-06T21:36:07.063Z,8.55
2022-12-06T21:38:34.326Z,8.54
2022-12-06T21:41:06.324Z,8.54
2022-12-06T21:43:34.333Z,8.51
2022-12-06T21:46:06.453Z,8.53
2022-12-06T21:48:33.139Z,8.54
2022-12-06T21:51:02.273Z,8.53
2022-12-06T21:53:28.961Z,8.53
2022-12-06T21:55:55.697Z,8.53
2022-12-06T21:58:22.357Z,8.52
2022-12-06T22:00:48.921Z,8.55
2022-12-06T22:03:22.529Z,8.50
2022-12-06T22:05:49.693Z,8.50
2022-12-06T22:08:16.354Z,8.44
2022-12-06T22:10:43.048Z,8.40
2022-12-06T22:13:10.199Z,8.41
2022-12-06T22:15:37.401Z,8.37
2022-12-06T22:18:04.618Z,8.36
2022-12-06T22:20:31.330Z,8.39
2022-12-06T22:22:58.044Z,8.34
2022-12-06T22:25:25.693Z,8.31
2022-12-06T22:27:54.324Z,8.32
2022-12-06T22:30:21.757Z,8.35
2022-12-06T22:32:48.367Z,8.38
2022-12-06T22:35:16.420Z,8.38
2022-12-06T22:37:43.088Z,8.38
2022-12-06T22:40:10.035Z,8.32
2022-12-06T22:42:36.659Z,8.28
2022-12-06T22:45:03.415Z,8.27
2022-12-06T22:47:30.068Z,8.30
2022-12-06T22:49:56.643Z,8.30
2022-12-06T22:52:23.306Z,8.33
2022-12-06T22:54:49.929Z,8.34
2022-12-06T22:57:16.490Z,8.35
2022-12-06T22:59:43.144Z,8.41
2022-12-06T23:02:09.809Z,8.34
2022-12-06T23:04:36.499Z,8.34
2022-12-06T23:07:03.315Z,8.33
2022-12-06T23:09:30.050Z,8.33
2022-12-06T23:11:56.662Z,8.28
2022-12-06T23:14:23.308Z,8.30
2022-12-06T23:16:50.053Z,8.33
2022-12-06T23:19:16.791Z,8.30
2022-12-06T23:21:43.538Z,8.33
2022-12-06T23:24:12.959Z,8.30
2022-12-06T23:26:42.141Z,8.29
2022-12-06T23:29:09.750Z,8.26
2022-12-06T23:31:39.270Z,8.28
2022-12-06T23:34:20.595Z,8.24
2022-12-06T23:36:47.521Z,8.20
2022-12-06T23:39:14.647Z,8.17
2022-12-06T23:41:41.691Z,8.11
2022-12-06T23:44:09.776Z,8.11
2022-12-06T23:46:38.752Z,8.04
2022-12-06T23:49:06.643Z,8.02
2022-12-06T23:51:38.431Z,8.04
2022-12-06T23:54:07.382Z,8.04
2022-12-06T23:56:36.571Z,7.98
2022-12-06T23:59:05.154Z,7.98
